Time;durP1;ratioP1;P1;durP2;ratioP2;P2;SDS_P1;SDS_P2;PMS_P1;PMS_P2;Temp;Humidity;BMP_temperature;BMP_pressure;BME280_temperature;BME280_humidity;BME280_pressure;Samples;Min_cycle;Max_cycle;Signal;HPM_P1;HPM_P2
2022/07/18 00:02:12;;;;;;;3.42;2.22;;;;;;;20.52;48.48;99374.53;4914088;28;103835;-61
2022/07/18 00:04:40;;;;;;;2.58;2.35;;;;;;;20.42;49.04;99371.06;4914733;28;104744;-61
2022/07/18 00:07:11;;;;;;;3.03;2.45;;;;;;;20.45;48.34;99373.44;4929247;28;103185;-60
2022/07/18 00:09:40;;;;;;;2.05;1.88;;;;;;;20.50;48.30;99376.50;4913099;28;102722;-60
2022/07/18 00:12:09;;;;;;;3.63;2.20;;;;;;;20.56;47.62;99373.19;4914825;28;104069;-60
2022/07/18 00:14:38;;;;;;;2.37;1.87;;;;;;;20.53;47.18;99368.13;4912256;28;102705;-60
2022/07/18 00:17:07;;;;;;;3.75;2.00;;;;;;;20.38;47.09;99373.22;4914552;28;103259;-60
2022/07/18 00:19:37;;;;;;;2.80;1.90;;;;;;;20.11;47.79;99376.00;4915014;28;102791;-60
2022/07/18 00:22:06;;;;;;;1.90;1.70;;;;;;;20.22;47.59;99379.28;4914246;28;102702;-59
2022/07/18 00:24:34;;;;;;;2.25;1.95;;;;;;;20.11;48.16;99373.31;4911253;28;103315;-60
2022/07/18 00:27:04;;;;;;;2.38;2.08;;;;;;;20.24;47.87;99385.34;4917886;28;103240;-59
2022/07/18 00:29:32;;;;;;;2.10;1.90;;;;;;;20.27;48.10;99383.38;4918091;28;102673;-59
2022/07/18 00:32:00;;;;;;;1.95;1.60;;;;;;;20.23;47.77;99378.31;4918446;28;103096;-59
2022/07/18 00:34:31;;;;;;;2.00;1.77;;;;;;;20.20;47.96;99383.97;4916028;28;103269;-60
2022/07/18 00:37:00;;;;;;;1.92;1.70;;;;;;;20.22;48.18;99381.97;4917485;28;103198;-61
2022/07/18 00:39:28;;;;;;;2.33;1.80;;;;;;;20.22;48.04;99378.44;4918233;28;102761;-60
2022/07/18 00:41:56;;;;;;;2.15;1.95;;;;;;;20.19;47.93;99371.53;4918406;28;102910;-60
2022/07/18 00:44:28;;;;;;;3.72;2.20;;;;;;;20.16;48.38;99371.00;4919156;28;103282;-60
2022/07/18 00:46:59;;;;;;;1.77;1.67;;;;;;;20.20;48.11;99370.56;4915898;28;103746;-60
2022/07/18 00:49:28;;;;;;;1.80;1.70;;;;;;;19.96;49.13;99364.97;4917273;28;102815;-61
2022/07/18 00:51:56;;;;;;;4.38;2.30;;;;;;;19.91;49.61;99372.63;4916911;28;102617;-61
2022/07/18 00:54:26;;;;;;;1.80;1.70;;;;;;;19.96;49.19;99372.16;4917148;28;103328;-61
2022/07/18 00:56:54;;;;;;;2.00;1.80;;;;;;;19.80;49.79;99375.56;4914652;28;103244;-60
2022/07/18 01:01:42;;;;;;;3.50;1.90;;;;;;;19.60;50.30;99374.00;4919303;28;102704;-61
2022/07/18 01:02:13;;;;;;;2.22;2.00;;;;;;;19.72;49.46;99375.47;4913133;28;102811;-61
2022/07/18 01:04:44;;;;;;;2.17;1.90;;;;;;;19.76;49.47;99374.16;4916182;28;104513;-59
2022/07/18 01:07:12;;;;;;;2.30;1.73;;;;;;;19.79;49.62;99368.50;4917429;28;103238;-61
2022/07/18 01:09:41;;;;;;;2.30;2.03;;;;;;;19.66;50.00;99370.72;4917452;28;102894;-61
2022/07/18 01:12:10;;;;;;;2.63;1.85;;;;;;;19.63;50.15;99376.38;4918094;28;102795;-61
2022/07/18 01:14:38;;;;;;;2.57;2.00;;;;;;;19.66;50.13;99376.94;4914179;28;104299;-61
2022/07/18 01:17:16;;;;;;;2.40;2.10;;;;;;;19.68;50.00;99369.56;4915610;28;103151;-61
2022/07/18 01:19:45;;;;;;;2.03;1.80;;;;;;;19.66;50.05;99368.88;4916515;28;102785;-61
2022/07/18 01:22:16;;;;;;;2.07;1.87;;;;;;;19.64;50.18;99370.03;4917848;28;102894;-61
2022/07/18 01:24:44;;;;;;;3.40;2.60;;;;;;;19.43;51.41;99366.78;4918332;28;103310;-61
2022/07/18 01:27:15;;;;;;;2.72;1.95;;;;;;;19.47;51.31;99368.19;4916255;28;103235;-60
2022/07/18 01:29:43;;;;;;;2.92;2.22;;;;;;;19.27;51.90;99371.94;4916607;28;102738;-59
2022/07/18 01:32:12;;;;;;;2.72;2.20;;;;;;;19.17;51.97;99376.50;4915350;28;104109;-59
2022/07/18 01:34:40;;;;;;;2.80;2.10;;;;;;;19.01;51.91;99377.13;4917168;28;103236;-61
2022/07/18 01:37:09;;;;;;;2.50;2.20;;;;;;;18.63;52.62;99369.25;4917473;28;103189;-61
2022/07/18 01:39:39;;;;;;;1.95;1.60;;;;;;;19.02;51.00;99368.97;4916051;28;103178;-61
2022/07/18 01:42:08;;;;;;;3.10;1.98;;;;;;;19.16;51.01;99374.81;4917020;28;102980;-62
2022/07/18 01:44:38;;;;;;;2.63;1.70;;;;;;;19.08;51.16;99368.38;4914480;28;103393;-61
2022/07/18 01:47:08;;;;;;;2.10;1.87;;;;;;;18.92;52.05;99373.50;4915883;28;103422;-60
2022/07/18 01:49:36;;;;;;;2.70;2.17;;;;;;;18.73;51.94;99378.06;4915496;28;102631;-61
2022/07/18 01:52:08;;;;;;;2.10;1.90;;;;;;;18.70;52.24;99365.84;4918390;28;102756;-61
2022/07/18 01:54:38;;;;;;;2.73;1.53;;;;;;;18.87;51.11;99365.06;4914606;28;103502;-61
2022/07/18 01:57:07;;;;;;;1.98;1.75;;;;;;;18.88;51.52;99376.63;4916176;28;103188;-59
2022/07/18 01:59:36;;;;;;;2.10;1.80;;;;;;;18.75;52.26;99370.75;4914982;28;102671;-61
2022/07/18 02:02:05;;;;;;;3.05;2.05;;;;;;;18.69;52.38;99371.34;4910028;28;102718;-61
2022/07/18 02:07:17;;;;;;;2.33;1.75;;;;;;;18.52;52.04;99373.78;4907893;28;103233;-58
2022/07/18 02:09:47;;;;;;;1.83;1.65;;;;;;;18.57;51.93;99373.34;4915755;28;102894;-58
2022/07/18 02:12:14;;;;;;;2.30;1.65;;;;;;;18.59;51.40;99376.72;4916076;28;102811;-58
2022/07/18 02:14:42;;;;;;;2.00;1.80;;;;;;;18.46;52.23;99374.34;4915829;28;104276;-57
2022/07/18 02:17:13;;;;;;;2.83;2.00;;;;;;;18.47;52.82;99377.81;4916545;28;103253;-57
2022/07/18 02:19:44;;;;;;;2.67;2.13;;;;;;;18.25;53.59;99378.16;4916929;28;102864;-59
2022/07/18 02:22:12;;;;;;;2.42;1.73;;;;;;;18.38;53.10;99378.72;4916954;28;103912;-59
2022/07/18 02:24:40;;;;;;;2.47;1.70;;;;;;;18.42;53.36;99380.94;4914537;28;103256;-60
2022/07/18 02:27:09;;;;;;;1.70;1.60;;;;;;;18.44;53.26;99378.16;4914521;28;103218;-59
2022/07/18 02:29:37;;;;;;;2.47;1.80;;;;;;;18.42;53.77;99385.44;4916947;28;103188;-58
2022/07/18 02:32:06;;;;;;;2.53;2.10;;;;;;;18.31;54.35;99378.44;4916006;28;104228;-59
2022/07/18 02:34:34;;;;;;;2.80;1.98;;;;;;;18.27;54.58;99384.22;4916642;28;104085;-59
2022/07/18 02:37:03;;;;;;;2.78;2.08;;;;;;;18.27;54.67;99378.88;4914701;28;103784;-59
2022/07/18 02:39:31;;;;;;;1.75;1.60;;;;;;;18.29;53.81;99376.91;4914684;28;102767;-59
2022/07/18 02:41:59;;;;;;;1.70;1.60;;;;;;;18.32;53.45;99380.13;4914508;28;102852;-59
2022/07/18 02:44:28;;;;;;;2.30;2.10;;;;;;;18.34;53.70;99382.66;4919089;28;104215;-58
2022/07/18 02:46:56;;;;;;;3.77;2.23;;;;;;;18.07;55.53;99387.91;4915799;28;103197;-56
2022/07/18 02:49:31;;;;;;;3.10;2.28;;;;;;;17.96;55.81;99384.38;4916349;28;102745;-57
2022/07/18 02:52:01;;;;;;;2.70;2.10;;;;;;;17.84;56.14;99380.16;4914638;28;102897;-59
2022/07/18 02:54:30;;;;;;;2.27;2.00;;;;;;;18.00;55.44;99381.41;4914974;28;103815;-59
2022/07/18 02:56:58;;;;;;;3.95;2.10;;;;;;;17.98;56.00;99380.72;4913430;28;103078;-59
2022/07/18 02:59:28;;;;;;;2.60;2.00;;;;;;;18.03;55.55;99383.81;4916355;28;102663;-56
2022/07/18 03:01:56;;;;;;;2.72;2.10;;;;;;;17.95;56.16;99387.19;4930004;28;102783;-55
2022/07/18 03:04:25;;;;;;;4.22;2.42;;;;;;;17.88;56.50;99381.56;4917206;28;104182;-55
2022/07/18 03:06:53;;;;;;;2.65;2.22;;;;;;;17.72;57.11;99391.97;4915590;28;103392;-55
2022/07/18 03:09:21;;;;;;;2.90;2.10;;;;;;;17.71;56.51;99390.25;4914534;28;102948;-59
2022/07/18 03:11:49;;;;;;;2.53;2.07;;;;;;;17.59;56.00;99386.06;4914227;28;103225;-59
2022/07/18 03:14:17;;;;;;;2.20;1.83;;;;;;;17.50;56.31;99392.19;4914111;28;102985;-59
2022/07/18 03:16:46;;;;;;;4.22;2.38;;;;;;;17.17;56.89;99390.69;4915723;28;103276;-59
2022/07/18 03:19:15;;;;;;;3.73;2.40;;;;;;;16.48;58.54;99392.28;4915526;28;103097;-56
2022/07/18 03:21:43;;;;;;;2.92;1.90;;;;;;;17.03;57.16;99393.75;4914635;28;102947;-59
2022/07/18 03:24:13;;;;;;;2.08;1.77;;;;;;;17.09;56.59;99395.03;4915284;28;103516;-56
2022/07/18 03:26:42;;;;;;;2.53;1.90;;;;;;;17.01;56.98;99394.84;4915388;28;103271;-56
2022/07/18 03:29:10;;;;;;;3.08;2.00;;;;;;;16.36;57.65;99396.03;4914283;28;102640;-59
2022/07/18 03:31:39;;;;;;;3.13;2.27;;;;;;;15.63;60.78;99396.00;4916865;28;102863;-59
2022/07/18 03:34:08;;;;;;;3.03;2.10;;;;;;;16.35;58.62;99397.00;4916117;28;103439;-59
2022/07/18 03:36:37;;;;;;;4.43;2.70;;;;;;;16.28;59.67;99401.13;4916377;28;103207;-56
2022/07/18 03:39:06;;;;;;;4.77;2.60;;;;;;;16.06;60.37;99398.59;4913285;28;103124;-59
2022/07/18 03:41:34;;;;;;;5.68;2.90;;;;;;;16.10;60.37;99408.03;4916197;28;102649;-56
2022/07/18 03:44:03;;;;;;;5.50;2.80;;;;;;;16.17;60.39;99398.53;4910784;28;104398;-56
2022/07/18 03:46:34;;;;;;;3.55;2.58;;;;;;;16.61;58.65;99398.31;4910765;28;103371;-56
2022/07/18 03:49:02;;;;;;;5.07;2.60;;;;;;;16.75;58.22;99399.78;4915503;28;102888;-56
2022/07/18 03:51:32;;;;;;;3.50;2.43;;;;;;;16.87;57.80;99400.56;4917238;28;104179;-56
2022/07/18 03:54:00;;;;;;;2.75;2.10;;;;;;;16.96;57.96;99397.91;4915271;28;103991;-61
2022/07/18 03:56:28;;;;;;;2.93;2.20;;;;;;;16.85;58.64;99405.16;4914181;28;103523;-60
2022/07/18 03:58:56;;;;;;;4.25;2.55;;;;;;;16.51;59.76;99397.38;4916831;28;102948;-60
2022/07/18 04:01:24;;;;;;;4.85;2.40;;;;;;;16.67;59.64;99397.75;4915378;28;102883;-59
2022/07/18 04:03:52;;;;;;;2.90;2.20;;;;;;;16.78;59.34;99395.03;4914564;28;104192;-56
2022/07/18 04:06:20;;;;;;;2.33;2.05;;;;;;;17.01;58.20;99389.53;4914476;28;103047;-56
2022/07/18 04:08:49;;;;;;;3.17;2.35;;;;;;;16.98;59.26;99385.25;4913115;28;104067;-57
2022/07/18 04:11:19;;;;;;;4.03;2.90;;;;;;;16.78;60.57;99389.72;4914419;28;103926;-57
2022/07/18 04:13:49;;;;;;;4.57;2.50;;;;;;;16.70;61.25;99399.34;4916808;28;103717;-57
2022/07/18 04:16:17;;;;;;;3.22;2.60;;;;;;;16.87;61.11;99395.22;4915568;28;103349;-56
2022/07/18 04:18:46;;;;;;;3.95;2.40;;;;;;;16.87;61.30;99395.22;4914699;28;103179;-57
2022/07/18 04:21:14;;;;;;;3.80;2.40;;;;;;;17.06;60.58;99392.63;4916255;28;102907;-57
2022/07/18 04:23:44;;;;;;;2.90;2.10;;;;;;;17.33;58.78;99391.03;4916940;28;103261;-57
2022/07/18 04:26:14;;;;;;;2.58;1.90;;;;;;;17.45;58.18;99394.44;4915572;28;103291;-57
2022/07/18 04:28:42;;;;;;;2.70;1.90;;;;;;;17.53;58.80;99399.91;4915691;28;102676;-57
2022/07/18 04:31:10;;;;;;;3.10;2.27;;;;;;;17.58;58.84;99400.38;4916578;28;102799;-56
2022/07/18 04:33:38;;;;;;;2.77;1.93;;;;;;;17.67;58.47;99388.88;4917031;28;104445;-56
2022/07/18 04:36:06;;;;;;;2.97;2.13;;;;;;;17.73;58.99;99393.66;4917817;28;103254;-57
2022/07/18 04:38:37;;;;;;;2.70;2.10;;;;;;;17.84;58.26;99388.19;4920079;28;102768;-59
2022/07/18 04:41:05;;;;;;;2.80;2.17;;;;;;;17.86;58.67;99383.53;4917079;28;103962;-60
2022/07/18 04:43:34;;;;;;;3.63;2.17;;;;;;;17.93;58.07;99384.69;4913146;28;103102;-59
2022/07/18 04:46:02;;;;;;;5.53;2.50;;;;;;;18.00;58.22;99384.09;4915084;28;103208;-61
2022/07/18 04:48:30;;;;;;;2.60;2.10;;;;;;;18.01;58.37;99375.09;4911469;28;103301;-59
2022/07/18 04:50:58;;;;;;;5.30;2.47;;;;;;;18.00;58.87;99390.28;4915591;28;103030;-59
2022/07/18 04:53:26;;;;;;;5.90;2.90;;;;;;;18.07;59.61;99385.22;4913140;28;103316;-60
2022/07/18 04:55:54;;;;;;;5.43;2.93;;;;;;;17.97;61.32;99385.22;4915492;28;103294;-60
2022/07/18 04:58:22;;;;;;;5.38;3.00;;;;;;;18.09;60.92;99388.59;4916436;28;102683;-59
2022/07/18 05:00:51;;;;;;;5.47;2.70;;;;;;;18.29;60.33;99390.25;4915746;28;102743;-57
2022/07/18 05:03:19;;;;;;;3.08;2.00;;;;;;;18.43;59.02;99382.66;4914375;28;103262;-57
2022/07/18 05:05:47;;;;;;;3.70;2.10;;;;;;;18.58;59.13;99383.06;4909210;28;103263;-57
2022/07/18 05:08:15;;;;;;;3.28;2.30;;;;;;;18.64;60.15;99390.50;4910962;28;103634;-56
2022/07/18 05:11:13;;;;;;;4.50;2.60;;;;;;;18.70;60.06;99384.56;4910715;28;104235;-57
2022/07/18 05:13:41;;;;;;;4.07;2.60;;;;;;;18.74;60.41;99372.59;4909541;28;103499;-57
2022/07/18 05:16:10;;;;;;;2.70;2.50;;;;;;;18.82;60.53;99383.41;4911677;28;104315;-57
2022/07/18 05:18:38;;;;;;;2.70;2.40;;;;;;;18.91;60.48;99392.41;4913776;28;103207;-57
2022/07/18 05:21:07;;;;;;;4.50;3.22;;;;;;;18.83;61.34;99374.41;4911737;28;103080;-56
2022/07/18 05:23:35;;;;;;;5.10;3.25;;;;;;;18.93;60.46;99383.22;4918046;28;104341;-56
2022/07/18 05:26:02;;;;;;;3.15;2.67;;;;;;;19.17;59.36;99388.06;4913010;28;103196;-56
2022/07/18 05:28:31;;;;;;;3.70;2.95;;;;;;;19.28;59.06;99389.69;4912577;28;102674;-56
2022/07/18 05:30:59;;;;;;;3.15;2.80;;;;;;;19.27;59.56;99385.31;4912584;28;103090;-57
2022/07/18 05:33:29;;;;;;;2.87;2.43;;;;;;;19.49;57.89;99383.09;4911181;28;103552;-56
2022/07/18 05:36:04;;;;;;;4.30;3.05;;;;;;;19.49;57.53;99384.94;4909608;28;104392;-56
2022/07/18 05:38:32;;;;;;;2.97;2.70;;;;;;;19.22;58.65;99384.94;4911006;28;102921;-57
2022/07/18 05:41:00;;;;;;;5.20;3.47;;;;;;;19.46;58.04;99382.56;4912779;28;103835;-56
2022/07/18 05:43:30;;;;;;;3.90;2.80;;;;;;;19.72;58.23;99388.03;4910682;28;103286;-57
2022/07/18 05:45:58;;;;;;;5.18;3.55;;;;;;;19.83;57.80;99383.28;4912782;28;103220;-57
2022/07/18 05:48:26;;;;;;;5.30;3.10;;;;;;;19.95;56.77;99384.75;4914984;28;103064;-56
2022/07/18 05:50:55;;;;;;;3.85;2.92;;;;;;;20.04;56.88;99389.19;4912619;28;102970;-57
2022/07/18 05:53:25;;;;;;;3.30;3.00;;;;;;;20.23;56.30;99386.34;4912282;28;103524;-57
2022/07/18 05:55:53;;;;;;;2.67;2.47;;;;;;;20.38;55.71;99383.94;4911310;28;103200;-57
2022/07/18 05:58:22;;;;;;;3.15;2.60;;;;;;;20.44;55.16;99394.06;4910791;28;102981;-57
2022/07/18 06:00:50;;;;;;;2.90;2.70;;;;;;;20.53;54.28;99392.28;4917062;28;103977;-58
2022/07/18 06:03:18;;;;;;;2.65;2.22;;;;;;;20.69;54.46;99389.69;4918168;28;104223;-60
2022/07/18 06:05:46;;;;;;;3.20;2.53;;;;;;;20.59;54.46;99388.97;4918096;28;103825;-60
2022/07/18 06:08:16;;;;;;;4.85;2.80;;;;;;;20.75;54.08;99383.69;4919500;28;102720;-60
2022/07/18 06:10:43;;;;;;;3.57;2.70;;;;;;;20.89;52.76;99391.16;4918410;28;102839;-60
2022/07/18 06:13:13;;;;;;;4.07;3.15;;;;;;;20.97;52.62;99387.72;4917789;28;103308;-57
2022/07/18 06:15:41;;;;;;;6.50;3.20;;;;;;;20.89;52.20;99391.16;4918919;28;103255;-57
2022/07/18 06:18:09;;;;;;;5.15;2.90;;;;;;;21.09;51.69;99395.34;4918949;28;102739;-57
2022/07/18 06:20:37;;;;;;;4.85;2.70;;;;;;;21.24;51.29;99390.22;4916089;28;102909;-58
2022/07/18 06:23:05;;;;;;;3.67;3.00;;;;;;;21.16;51.15;99385.66;4917651;28;104030;-58
2022/07/18 06:25:34;;;;;;;3.30;2.60;;;;;;;21.30;50.33;99385.03;4919308;28;103193;-58
2022/07/18 06:28:02;;;;;;;5.60;3.00;;;;;;;21.34;51.08;99381.00;4916742;28;102666;-58
2022/07/18 06:30:30;;;;;;;5.87;3.07;;;;;;;21.55;50.51;99382.41;4916248;28;104154;-58
2022/07/18 06:32:59;;;;;;;4.55;2.63;;;;;;;21.61;50.55;99387.16;4918570;28;103358;-58
2022/07/18 06:35:27;;;;;;;5.03;3.00;;;;;;;21.81;50.47;99389.34;4917719;28;103211;-58
2022/07/18 06:37:55;;;;;;;4.60;3.03;;;;;;;21.95;49.76;99380.66;4917169;28;102825;-58
2022/07/18 06:40:25;;;;;;;6.47;2.70;;;;;;;22.13;50.18;99380.53;4916956;28;103780;-58
2022/07/18 06:42:54;;;;;;;4.07;3.08;;;;;;;22.24;48.53;99379.34;4918529;28;103381;-61
2022/07/18 06:45:22;;;;;;;5.05;2.38;;;;;;;22.46;48.60;99371.41;4916170;28;103221;-61
2022/07/18 06:47:50;;;;;;;5.60;2.57;;;;;;;22.37;48.67;99377.00;4918367;28;102767;-61
2022/07/18 06:50:18;;;;;;;4.13;2.60;;;;;;;22.51;47.98;99369.06;4918304;28;103017;-61
2022/07/18 06:52:46;;;;;;;3.50;2.60;;;;;;;22.71;47.67;99371.44;4903901;28;104269;-61
2022/07/18 06:55:15;;;;;;;4.57;2.40;;;;;;;22.85;48.02;99368.03;4909500;28;103215;-61
2022/07/18 06:57:43;;;;;;;5.07;2.92;;;;;;;22.73;47.90;99378.31;4910803;28;102924;-61
2022/07/18 07:00:15;;;;;;;5.22;2.83;;;;;;;22.91;47.39;99364.63;4912329;28;103904;-61
2022/07/18 07:02:45;;;;;;;4.18;2.60;;;;;;;23.03;47.70;99360.53;4902701;28;103306;-61
2022/07/18 07:05:14;;;;;;;9.15;2.70;;;;;;;23.19;47.84;99365.03;4927634;28;103192;-61
2022/07/18 07:07:42;;;;;;;5.72;2.50;;;;;;;23.49;47.48;99365.09;4928470;28;103153;-61
2022/07/18 07:10:16;;;;;;;4.63;2.60;;;;;;;23.20;47.43;99367.56;4930374;28;102633;-62
2022/07/18 07:12:47;;;;;;;4.63;2.80;;;;;;;23.38;46.62;99357.38;4928938;28;103093;-61
2022/07/18 07:15:19;;;;;;;3.88;2.65;;;;;;;23.65;46.36;99359.59;4926908;28;103198;-60
2022/07/18 07:17:48;;;;;;;5.55;2.60;;;;;;;23.49;47.01;99365.09;4929703;28;102703;-61
2022/07/18 07:20:17;;;;;;;5.50;3.13;;;;;;;23.36;47.07;99355.84;4929700;28;102866;-61
2022/07/18 07:22:47;;;;;;;6.13;3.28;;;;;;;23.39;47.58;99367.16;4930473;28;103828;-61
2022/07/18 07:25:15;;;;;;;5.73;3.00;;;;;;;23.78;46.46;99356.31;4927923;28;103280;-62
2022/07/18 07:27:44;;;;;;;5.88;2.78;;;;;;;24.04;46.31;99348.69;4935755;28;103274;-61
2022/07/18 07:30:13;;;;;;;4.28;2.65;;;;;;;24.54;45.08;99353.50;4932189;28;102745;-62
2022/07/18 07:32:45;;;;;;;5.70;2.80;;;;;;;24.52;45.10;99352.00;4937600;28;103294;-61
2022/07/18 07:35:15;;;;;;;5.30;3.20;;;;;;;24.33;45.25;99347.13;4937050;28;103211;-61
2022/07/18 07:37:48;;;;;;;7.43;3.28;;;;;;;24.76;45.03;99352.59;4936320;28;102728;-61
2022/07/18 07:40:18;;;;;;;5.45;3.30;;;;;;;24.55;44.33;99351.66;4936251;28;102751;-61
2022/07/18 07:42:46;;;;;;;4.17;2.43;;;;;;;25.44;43.60;99354.16;4937580;28;103513;-62
2022/07/18 07:45:15;;;;;;;5.70;2.65;;;;;;;25.34;43.67;99356.34;4920239;28;103189;-62
2022/07/18 07:47:44;;;;;;;4.43;2.50;;;;;;;25.59;42.88;99346.06;4936417;28;102700;-59
2022/07/18 07:50:13;;;;;;;4.90;2.20;;;;;;;26.19;42.20;99341.06;4937497;28;102921;-58
2022/07/18 07:52:41;;;;;;;7.18;2.95;;;;;;;26.45;41.65;99343.16;4936739;28;103253;-59
2022/07/18 07:55:09;;;;;;;6.60;2.70;;;;;;;26.83;41.15;99339.09;4917950;28;103234;-59
2022/07/18 07:57:37;;;;;;;9.57;3.20;;;;;;;26.64;40.76;99345.16;4935504;28;102871;-59
2022/07/18 08:00:08;;;;;;;5.50;2.80;;;;;;;27.35;39.72;99337.66;4936426;28;102664;-59
2022/07/18 08:02:52;;;;;;;6.30;2.58;;;;;;;27.27;38.90;99330.53;4934940;28;104669;-61
2022/07/18 08:05:27;;;;;;;2.95;2.40;;;;;;;28.12;37.85;99335.41;4934394;28;103201;-62
2022/07/18 08:07:56;;;;;;;5.63;2.70;;;;;;;27.86;38.60;99330.75;4936902;28;102710;-62
2022/07/18 08:10:24;;;;;;;8.20;2.67;;;;;;;28.32;38.07;99330.84;4936406;28;102685;-62
2022/07/18 08:12:52;;;;;;;7.25;2.60;;;;;;;27.41;36.24;99331.47;4934629;28;104076;-63
2022/07/18 08:15:20;;;;;;;5.68;2.25;;;;;;;28.51;36.01;99326.44;4934516;28;103190;-63
2022/07/18 08:17:48;;;;;;;4.57;2.50;;;;;;;29.08;33.55;99336.59;4933580;28;102709;-62
2022/07/18 08:20:21;;;;;;;3.17;1.80;;;;;;;29.12;33.70;99330.50;4936380;28;104026;-62
2022/07/18 08:22:56;;;;;;;3.15;1.90;;;;;;;29.65;32.88;99324.84;4917977;28;103245;-62
2022/07/18 08:25:28;;;;;;;3.50;1.77;;;;;;;29.84;32.77;99323.91;4937727;28;103275;-62
2022/07/18 08:27:57;;;;;;;5.10;2.33;;;;;;;29.87;32.21;99315.31;4935851;28;102609;-62
2022/07/18 08:30:25;;;;;;;2.07;1.87;;;;;;;30.56;31.35;99320.66;4935924;28;103904;-61
2022/07/18 08:32:53;;;;;;;2.72;2.08;;;;;;;30.70;31.20;99322.19;4934769;28;103290;-61
2022/07/18 08:35:23;;;;;;;4.50;2.10;;;;;;;31.37;32.14;99320.41;4936016;28;103313;-62
2022/07/18 08:37:51;;;;;;;3.42;1.80;;;;;;;31.61;31.82;99319.47;4908753;28;103650;-62
2022/07/18 08:40:19;;;;;;;2.70;1.70;;;;;;;31.63;30.39;99316.53;4918903;28;102809;-62
2022/07/18 08:42:51;;;;;;;3.43;2.00;;;;;;;30.69;30.96;99319.69;4949128;28;103421;-61
2022/07/18 08:45:42;;;;;;;5.32;1.90;;;;;;;31.00;31.39;99327.78;4933064;28;103156;-60
2022/07/18 08:48:13;;;;;;;3.10;1.90;;;;;;;31.63;29.44;99321.97;4936766;28;102776;-60
2022/07/18 08:50:44;;;;;;;3.67;1.70;;;;;;;32.22;30.60;99316.50;4936650;28;103783;-62
2022/07/18 08:53:14;;;;;;;2.45;1.90;;;;;;;32.90;29.58;99318.69;4939024;28;104003;-62
2022/07/18 08:55:41;;;;;;;2.67;1.88;;;;;;;33.29;28.00;99315.19;4934648;28;103212;-62
2022/07/18 08:58:12;;;;;;;5.30;1.95;;;;;;;33.19;29.10;99323.16;4938214;28;103046;-62
2022/07/18 09:01:03;;;;;;;2.93;1.60;;;;;;;33.46;28.47;99316.03;4938588;28;102812;-62
2022/07/18 09:03:31;;;;;;;3.47;1.50;;;;;;;33.97;28.01;99322.50;4918661;28;103959;-63
2022/07/18 09:06:09;;;;;;;3.42;1.60;;;;;;;34.30;29.15;99320.66;4937279;28;103243;-63
2022/07/18 09:08:38;;;;;;;2.80;1.87;;;;;;;32.78;26.85;99320.59;4929989;28;102873;-62
2022/07/18 09:11:12;;;;;;;4.07;1.73;;;;;;;33.50;28.96;99319.97;4933152;28;103913;-60
2022/07/18 09:14:00;;;;;;;2.77;1.77;;;;;;;34.68;26.73;99306.22;4918033;28;103313;-60
2022/07/18 09:16:28;;;;;;;5.93;2.13;;;;;;;34.14;27.17;99317.91;4936284;28;103205;-60
2022/07/18 09:18:56;;;;;;;3.00;1.50;;;;;;;33.83;26.48;99313.78;4938020;28;102744;-60
2022/07/18 09:21:25;;;;;;;2.38;1.70;;;;;;;34.61;26.48;99305.56;4938316;28;104020;-60
2022/07/18 09:23:59;;;;;;;1.77;1.42;;;;;;;34.89;26.25;99308.16;4938547;28;104430;-61
2022/07/18 09:26:40;;;;;;;2.20;1.70;;;;;;;35.09;25.50;99304.88;4936538;28;103216;-62
2022/07/18 09:29:09;;;;;;;1.83;1.67;;;;;;;35.16;27.20;99310.19;4938592;28;102851;-60
2022/07/18 09:31:56;;;;;;;1.73;1.50;;;;;;;35.17;26.01;99309.13;4940668;28;102687;-60
2022/07/18 09:34:34;;;;;;;2.17;1.60;;;;;;;35.29;24.98;99304.31;4938085;28;104024;-60
2022/07/18 09:37:04;;;;;;;2.70;1.75;;;;;;;35.10;24.29;99305.72;4936450;28;103157;-60
2022/07/18 09:39:33;;;;;;;2.83;1.50;;;;;;;34.74;26.11;99304.38;4889325;28;102737;-60
2022/07/18 09:42:14;;;;;;;2.30;1.60;;;;;;;34.71;23.29;99300.22;4909979;28;102766;-62
2022/07/18 09:44:42;;;;;;;1.70;1.60;;;;;;;34.35;24.38;99300.75;4914747;28;104158;-62
2022/07/18 09:47:10;;;;;;;2.05;1.30;;;;;;;34.97;27.42;99303.31;4913295;28;103190;-62
2022/07/18 09:49:42;;;;;;;2.33;1.70;;;;;;;35.93;24.97;99300.66;4913619;28;102718;-60
2022/07/18 09:52:11;;;;;;;4.22;1.40;;;;;;;35.83;24.70;99296.97;4913515;28;103203;-60
2022/07/18 09:54:42;;;;;;;2.25;1.60;;;;;;;35.69;24.91;99296.56;4903603;28;103941;-60
2022/07/18 09:57:23;;;;;;;2.97;1.50;;;;;;;35.71;24.55;99297.13;4897727;28;103231;-60
2022/07/18 09:59:54;;;;;;;1.67;1.55;;;;;;;36.51;23.04;99288.00;4914474;28;102938;-60
2022/07/18 10:02:22;;;;;;;2.17;1.50;;;;;;;34.87;24.73;99287.53;4905092;28;102927;-60
2022/07/18 10:04:51;;;;;;;1.98;1.40;;;;;;;35.79;24.55;99291.16;4918002;28;103082;-60
2022/07/18 10:07:21;;;;;;;3.00;1.65;;;;;;;36.00;24.27;99293.03;4912510;28;103234;-60
2022/07/18 10:09:50;;;;;;;2.13;1.83;;;;;;;35.65;25.37;99298.16;4913824;28;102736;-60
2022/07/18 10:12:19;;;;;;;1.95;1.65;;;;;;;35.44;24.41;99288.84;4923697;28;103134;-60
2022/07/18 10:14:47;;;;;;;2.28;1.67;;;;;;;35.12;24.53;99285.16;4910546;28;103392;-60
2022/07/18 10:17:20;;;;;;;3.03;1.90;;;;;;;36.68;23.96;99283.16;4911385;28;103029;-60
2022/07/18 10:19:48;;;;;;;3.90;2.20;;;;;;;36.36;24.70;99279.59;4915228;28;102759;-61
2022/07/18 10:22:17;;;;;;;3.35;1.80;;;;;;;36.21;24.14;99274.00;4915873;28;102884;-60
2022/07/18 10:24:49;;;;;;;2.50;1.90;;;;;;;36.26;24.99;99290.53;4895873;28;104047;-60
2022/07/18 10:27:19;;;;;;;4.37;1.70;;;;;;;36.43;23.90;99280.22;4913922;28;103230;-60
2022/07/18 10:30:11;;;;;;;3.60;1.90;;;;;;;36.52;23.87;99273.16;4895413;28;103295;-61
2022/07/18 10:32:40;;;;;;;4.70;1.83;;;;;;;35.04;23.59;99282.00;4912517;28;102947;-60
2022/07/18 10:35:10;;;;;;;6.43;5.22;;;;;;;35.12;25.23;99278.88;4913384;28;103764;-60
2022/07/18 10:37:39;;;;;;;3.70;1.95;;;;;;;36.14;24.52;99281.63;4913917;28;103089;-60
2022/07/18 10:40:29;;;;;;;2.45;1.73;;;;;;;35.57;23.44;99278.59;4901150;28;102729;-60
2022/07/18 10:43:35;;;;;;;2.17;1.90;;;;;;;36.25;24.57;99277.84;4900519;28;102943;-60
2022/07/18 10:46:09;;;;;;;4.33;1.80;;;;;;;36.10;23.75;99272.25;4910685;28;103105;-62
2022/07/18 10:48:56;;;;;;;3.00;1.65;;;;;;;36.30;23.49;99267.72;4901795;28;103252;-62
2022/07/18 10:51:35;;;;;;;2.05;1.63;;;;;;;36.38;23.54;99272.72;4912532;28;103143;-61
2022/07/18 10:54:11;;;;;;;3.20;1.77;;;;;;;35.79;24.60;99274.66;4909955;28;102889;-63
2022/07/18 10:57:10;;;;;;;3.10;1.80;;;;;;;35.60;23.89;99264.31;4912785;28;103368;-63
2022/07/18 10:59:59;;;;;;;1.85;1.58;;;;;;;35.79;25.30;99269.19;4910495;28;103865;-60
2022/07/18 11:02:33;;;;;;;2.88;1.75;;;;;;;35.55;24.39;99266.97;4914934;28;102614;-60
2022/07/18 11:05:01;;;;;;;2.03;1.50;;;;;;;35.96;24.02;99261.66;4914130;28;103088;-60
2022/07/18 11:07:30;;;;;;;3.15;1.50;;;;;;;36.11;22.71;99252.72;4895945;28;104134;-59
2022/07/18 11:09:58;;;;;;;3.10;2.15;;;;;;;34.27;23.86;99251.81;4913532;28;103202;-60
2022/07/18 11:12:30;;;;;;;2.42;1.60;;;;;;;34.63;23.65;99242.22;4905614;28;102877;-60
2022/07/18 11:15:03;;;;;;;2.30;1.85;;;;;;;35.87;23.80;99237.66;4915442;28;103030;-61
2022/07/18 11:18:01;;;;;;;2.97;1.73;;;;;;;35.66;24.36;99244.88;4905971;28;103332;-59
2022/07/18 11:20:37;;;;;;;3.60;1.70;;;;;;;36.20;22.92;99247.56;4915748;28;103091;-59
2022/07/18 11:23:15;;;;;;;2.20;1.42;;;;;;;35.53;24.00;99239.78;4908139;28;103366;-59
2022/07/18 11:25:43;;;;;;;2.83;1.73;;;;;;;35.06;22.83;99238.66;4914252;28;104075;-59
2022/07/18 11:28:26;;;;;;;1.93;1.47;;;;;;;34.57;23.40;99235.81;4896727;28;104902;-59
2022/07/18 11:31:04;;;;;;;2.00;1.80;;;;;;;35.62;24.33;99235.50;4909948;28;103200;-60
2022/07/18 11:33:35;;;;;;;4.70;2.03;;;;;;;36.07;23.26;99228.78;4908176;28;102917;-60
2022/07/18 11:36:05;;;;;;;2.70;1.50;;;;;;;36.55;22.29;99232.16;4908934;28;102900;-60
2022/07/18 11:38:34;;;;;;;1.65;1.50;;;;;;;36.82;22.31;99229.28;4909504;28;104280;-61
2022/07/18 11:41:03;;;;;;;4.15;1.80;;;;;;;33.82;23.51;99218.97;4910784;28;103189;-60
2022/07/18 11:43:33;;;;;;;3.40;1.70;;;;;;;35.03;23.10;99212.56;4909218;28;102936;-60